Sign in:
Email
 Password  save:
  
 Company Reports 
 
   
My Recent Searches
  Help
 
   
 
 
Get Institutions for : 
Liberty Media Corporation (LMCA)    
$36.27 0.36 (1%) as of 4:30 Tue 11/18


Download
     
Institutional Holders
Viewing Quarter :
  
Total Institutions: 336    57
Total shares held : 
84,640,221  
% of shares held : 
70.24%  
Changes In:
New/increased positions vs   
old/decreased positions : 
  -20  
Amount of shares held : 
521,764  
% of shares held change : 
  0.43%  
Quarter Price vs. Current Price:
Last Quarter's Starting Price
$139.25  
Last Quarter's Ending Price : 
$47.18  
Last Quarter's Average Price
$70.97  
Change from last quarter's     
avg. price to the last closing  : 
34.70 (48.9%)  




 
All Securities Held :
Positions
     Shares
% Of
Total Shares
New Positions :
28
 3,589,038
 4.24%
 
Increased Positions :
136
 10,413,025
 12.3%
 
Unchanged Positions :
73
 6,584,299
 7.78%
 
Decreased Positions :
99
-8,849,452
-10.46%
 
Closed Positions :
85
-4,630,847
-5.47%
 
Guru Positions :
2
5,473,581
 6.47%
 
View holdings for period: 
12-31-2012 View holdings for period: 
3-31-2013 View holdings for period: 
6-30-2013 View holdings for period: 
9-30-2013 View holdings for period: 
12-31-2013 View holdings for period: 
3-31-2014 View holdings for period: 
6-30-2014 View holdings for the current period

  Page 1 of 1  
Free Registration Required For Full Results


            Institution Name
Portfolio
Position
New/Closed
Position

Filing Date

Total Shares

Total Value

Change in Shares

File
   D E SHAW & CO INC 34 - 2014-09-30 5,615,128 $264,921,000 1,335,165
   HORIZON KINETICS LLC 11 - 2014-09-30 4,486,355 $211,666,000 -44,906
   CLEARBRIDGE ADVISORS LLC 121 - 2014-09-30 4,458,167 $210,336,000 170,430
   BERKSHIRE HATHAWAY INC -- Notable Guru -- 36 - 2014-09-30 4,000,000 $188,720,000 0
   VANGUARD GROUP INC 1068 - 2014-09-30 3,427,637 $161,717,000 103,598
   ROBECO INVESTMENT MANAGEMENT INC 133 - 2014-09-30 2,647,571 $124,913,000 102,366
   GOLDMAN SACHS GROUP INC/ 425 - 2014-09-30 2,528,224 $119,282,000 714,259
   PRINCIPAL FINANCIAL GROUP INC 139 - 2014-09-30 2,479,560 $116,986,000 166,607
   BLACKROCK INSTITUTIONAL TRUST COMPANY - 2014-09-30 2,322,928 $109,596,000 -66,992
   FMR LLC 959 - 2014-09-30 2,134,507 $100,705,000 -4,963,494
   BLACKROCK ADVISORS LLC - 2014-09-30 1,956,317 $92,299,000 -207,952
   FPR PARTNERS LLC 12 - 2014-09-30 1,880,001 $88,698,000 145,600
   SEIZERT CAPITAL PARTNERS LLC 12 - 2014-09-30 1,844,116 $87,005,000 -31,730
   STATE STREET CORP 947 - 2014-09-30 1,683,271 $79,416,000 -26,876
   WEITZ WALLACE R & CO -- Notable Guru -- 17 - 2014-09-30 1,473,581 $69,524,000 18,642
   BLACKROCK GROUP LTD - 2014-09-30 1,261,902 $59,538,000 7,079
   WELLS FARGO & CO/MN 673 - 2014-09-30 1,215,385 $57,342,000 572,944
   DEUTSCHE BANK AG 497 - 2014-09-30 1,182,068 $55,766,000 533,374
   ASCEND CAPITAL LLC 8 - 2014-09-30 1,073,055 $50,627,000 460,513
   ARISTEIA CAPITAL LLC 7 *New 2014-09-30 1,051,546 $49,612,000 1,051,546
   INVESCO LTD 757 - 2014-09-30 1,040,615 $49,096,000 -64,931
   GRUSS ASSET MGMT LP 6 - 2014-09-30 1,033,193 $48,746,000 471,466
   J P MORGAN CHASE & CO 811 - 2014-09-30 1,019,376 $48,094,000 532,838
   CITADEL ADVISORS LLC 280 - 2014-09-30 970,085 $45,768,000 353,754
   MUNDER CAPITAL MANAGEMENT - 2014-09-30 948,636 $44,757,000 -2,196
   VISIUM ASSET MANAGEMENT LP 25 - 2014-09-30 836,797 $39,480,000 479,247
   P SCHOENFELD ASSET MANAGEMENT LLC/NY 17 - 2014-09-30 793,139 $37,420,000 28,346
   BLACKROCK FUND ADVISORS - 2014-09-30 744,822 $35,141,000 18,537
   GAMCO INVESTORS INC ET AL - 2014-09-30 737,448 $34,793,000 -14,708
   BAMCO INC /NY/ 167 - 2014-09-30 697,744 $32,920,000 3,400
   EverPoint Asset Management LLC 22 - 2014-09-30 650,000 $30,667,000 -170,827
   INSTITUTIONAL CAPITAL CORP 45 *New 2014-09-30 638,316 $30,115,000 638,316
   KENSICO CAPITAL MANAGEMENT CORP 21 - 2014-09-30 616,000 $29,063,000 -69,000
   DIMENSIONAL FUND ADVISORS INC 1213 - 2014-09-30 604,771 $28,533,000 -23,695
   NORTHERN TRUST CORP 1250 - 2014-09-30 575,304 $27,143,000 -66,407
   GABELLI FUNDS LLC - 2014-09-30 569,500 $26,869,000 1,000
   FIRST MANHATTAN CO - 2014-09-30 558,340 $26,342,000 -18,408
   GEODE CAPITAL MANAGEMENT LLC 709 - 2014-09-30 545,429 $25,727,000 5,894
   MORGAN STANLEY 1242 - 2014-09-30 544,345 $25,682,000 309,712
   BNP PARIBAS ARBITRAGE SA 231 - 2014-09-30 456,894 $21,556,000 253,046
   BLACKROCK INC. - 2014-09-30 433,328 $20,445,000 263,508
   HSBC HOLDINGS PLC 365 - 2014-06-30 146,729 $20,039,000 -55,816
   EMPYREAN CAPITAL PARTNERS LP 22 - 2014-09-30 420,000 $19,816,000 0
   MARKSTON INTERNATIONAL LLC 20 - 2014-09-30 413,825 $19,524,000 957
   Roystone Capital Management LP 33 - 2014-09-30 409,600 $19,325,000 15,000
   BANK OF NEW YORK MELLON CORP 1444 - 2014-09-30 409,421 $19,319,000 -13,768
   ARROWGRASS CAPITAL PARTNERS (US) LP 22 - 2014-09-30 409,243 $19,308,000 332,907
   WALLACE CAPITAL MANAGEMENT INC. 8 - 2014-09-30 407,607 $19,180,000 270,608
   CLOUGH CAPITAL PARTNERS L P 56 - 2014-09-30 389,387 $18,371,000 -8,200
   LEGAL & GENERAL GROUP PLC 608 - 2014-09-30 374,911 $17,688,000 13,042
   CREDIT SUISSE/ 832 - 2014-09-30 373,127 $17,603,000 70,821
   LOOMIS SAYLES & CO L P 266 - 2014-09-30 367,320 $17,330,000 102,574
   DAVENPORT & CO LLC 104 - 2014-09-30 351,380 $16,578,000 2,185
   KINGSTOWN CAPITAL MANAGEMENT L.P. 12 - 2014-09-30 350,000 $16,513,000 0
   CHARTER BRIDGE CAPITAL MANAGEMENT, L.P. 1 *New 2014-09-30 340,217 $16,051,000 340,217
   UNITED STATES STEEL & CARNEGIE PENSION FD 50 - 2014-09-30 328,107 $15,480,000 0
   FIRST TRUST ADVISORS LP 497 - 2014-09-30 325,991 $15,380,000 146,565
   ACT II MANAGEMENT, LP 3 - 2014-09-30 325,199 $15,343,000 262,154
   JANA PARTNERS LLC 40 - 2014-09-30 325,000 $15,334,000 0
   KINGDON CAPITAL MANAGEMENT LLC 31 *New 2014-09-30 325,000 $15,265,000 325,000
   TIAA CREF INVESTMENT MANAGEMENT LLC 881 - 2014-09-30 308,010 $14,532,000 33,427
   BHR CAPITAL, LLC 20 - 2014-09-30 300,000 $14,154,000 0
   MARSHALL WACE LLP 141 - 2014-09-30 299,495 $14,130,000 299,495
   S&CO INC - 2014-09-30 294,134 $13,877,000 -5,644
   MARKEL CORP 55 - 2014-09-30 293,000 $13,824,000 47,000
   ROBECO INSTITUTIONAL ASSET MANAGEMENT B.V. 223 - 2014-09-30 290,360 $13,699,000 11,269
   PINNACLE ASSOCIATES LTD 98 - 2014-09-30 287,407 $13,560,000 -11,041
   MANAGED ACCOUNT ADVISORS LLC 869 - 2014-09-30 285,653 $13,477,000 33,836
   PUBLIC EMPLOYEES RETIREMENT SYSTEM OF OHIO 285 - 2014-09-30 283,682 $13,384,000 -1,169
   SCHWAB CHARLES INVESTMENT MANAGEMENT INC 637 - 2014-06-30 97,715 $13,356,000 6,275
   APG ALL PENSIONS GROUP 543 - 2014-09-30 275,375 $12,992,000 6,692
   SG AMERICAS SECURITIES LLC 249 - 2014-09-30 274,585 $12,955,000 193,392
   LOCUST WOOD CAPITAL ADVISERS LLC - 2014-09-30 265,934 $12,547,000 9,265
   COMMERZBANK AKTIENGESELLSCHAFT 244 - 2014-09-30 251,923 $11,886,000 -14,336
   RS INVESTMENT MANAGEMENT CO LLC 221 - 2014-09-30 248,099 $11,705,000 -13,175
   CALIFORNIA PUBLIC EMPLOYEES RETIREMENT SYSTEM 879 - 2014-09-30 243,523 $11,489,000 -37,400
   GUGGENHEIM CAPITAL LLC 830 - 2014-09-30 240,455 $11,345,000 -30,557
   UBS GLOBAL ASSET MANAGEMENT AMERICAS INC - 2014-09-30 235,197 $11,096,000 1,844
   SUMITOMO MITSUI TRUST HOLDINGS, INC. 618 - 2014-09-30 234,889 $11,082,000 -612
   TYRUS CAPITAL S.A.M. 13 - 2014-09-30 230,000 $10,851,000 40,000
   BLACKROCK INVESTMENT MANAGEMENT LLC - 2014-09-30 223,217 $10,531,000 -18,322
   DRIEHAUS CAPITAL MANAGEMENT LLC 52 *New 2014-09-30 214,250 $10,108,000 214,250
   CALIFORNIA STATE TEACHERS RETIREMENT SYSTEM 632 - 2014-09-30 211,640 $9,985,000 38,396
   CQS CAYMAN LP *New 2014-09-30 203,080 $9,581,000 203,080
   FRANKLIN RESOURCES INC 1002 - 2014-09-30 200,955 $9,481,000 -630,279
   FRESHFORD CAPITAL MANAGEMENT, LLC 24 *New 2014-09-30 200,000 $9,436,000 200,000
   Napier Park Global Capital LLC 10 - 2014-09-30 177,920 $8,394,000 129,287
   MITSUBISHI UFJ TRUST & BANKING CORP 635 - 2014-09-30 165,677 $7,817,000 -13,926
   DORSAL CAPITAL MANAGEMENT, LLC 24 - 2014-09-30 160,000 $7,549,000 -80,000
   Halcyon Management Partners LP 22 - 2014-09-30 158,688 $7,487,000 -461,196
   ARROWPOINT ASSET MANAGEMENT, LLC 128 - 2014-09-30 156,854 $7,400,000 0
   ARNHOLD & S BLEICHROEDER ADVISERS LLC 177 - 2014-09-30 156,391 $7,379,000 0
   DOUGLASS WINTHROP ADVISORS LLC - 2014-09-30 148,165 $6,990,000 31,290
   BANK OF AMERICA CORP /DE/ 1734 - 2014-09-30 145,291 $6,854,000 50,323
   KING LUTHER CAPITAL MANAGEMENT CORP 259 - 2014-09-30 144,084 $6,798,000 -78,463
   LMR Partners LLP *New 2014-09-30 143,824 $6,786,000 143,824
   STATE BOARD OF ADMINISTRATION OF FLORIDA RETIREMEN 688 - 2014-09-30 142,328 $6,715,000 -1,115
   UBS AG 1329 - 2014-09-30 142,321 $6,714,000 15,220
   NOMURA HOLDINGS INC 207 - 2014-09-30 123,905 $6,671,000 17,876
   ST. JAMES INVESTMENT COMPANY, LLC 20 - 2014-09-30 138,515 $6,535,000 87,375

  100 Records found
  1    
  Page 1 of 1
Free Registration Required For Full Results